| time (UTC) | temp F | wind direction | speed MPH | gust MPH | rain 1hr in | rain 24hr in | rain mn in | humidity % | barometer mb |
| 20260906185533 | 95 | 159 | 6.0 | 14.0 | 0.00 | 0.00 | 0.00 | 43 | 1013.9 |
| 20260906185033 | 97 | 95 | 5.0 | 14.0 | 0.00 | 0.00 | 0.00 | 43 | 1013.9 |
| 20260906184602 | 97 | 108 | 5.0 | 14.0 | 0.00 | 0.00 | 0.00 | 41 | 1013.9 |
| 20260906184033 | 98 | 119 | 4.0 | 12.0 | 0.00 | 0.00 | 0.00 | 43 | 1014.0 |
| 20260906183533 | 98 | 151 | 4.0 | 11.0 | 0.00 | 0.00 | 0.00 | 40 | 1014.0 |
| 20260906183102 | 97 | 189 | 2.0 | 12.0 | 0.00 | 0.00 | 0.00 | 43 | 1014.0 |
| 20260906182536 | 97 | 154 | 5.0 | 12.0 | 0.00 | 0.00 | 0.00 | 43 | 1014.1 |
| 20260906182033 | 97 | 163 | 6.0 | 13.0 | 0.00 | 0.00 | 0.00 | 43 | 1014.1 |
| 20260906181606 | 98 | 147 | 2.0 | 13.0 | 0.00 | 0.00 | 0.00 | 44 | 1014.2 |
| 20260906181034 | 98 | 126 | 7.0 | 13.0 | 0.00 | 0.00 | 0.00 | 44 | 1014.3 |
| 20260906180533 | 97 | 120 | 7.0 | 12.0 | 0.00 | 0.00 | 0.00 | 46 | 1014.4 |
| 20260906180106 | 97 | 101 | 6.0 | 14.0 | 0.00 | 0.00 | 0.00 | 46 | 1014.4 |
| 20260906175533 | 96 | 105 | 7.0 | 16.0 | 0.00 | 0.00 | 0.00 | 47 | 1014.6 |
| 20260906175032 | 95 | 103 | 7.0 | 16.0 | 0.00 | 0.00 | 0.00 | 47 | 1014.7 |
| 20260906174600 | 93 | 170 | 9.0 | 16.0 | 0.00 | 0.00 | 0.00 | 50 | 1014.9 |
| 20260906174033 | 92 | 12 | 2.0 | 12.0 | 0.00 | 0.00 | 0.00 | 51 | 1014.9 |
| 20260906173532 | 92 | 179 | 3.0 | 11.0 | 0.00 | 0.00 | 0.00 | 53 | 1015.0 |
| 20260906173100 | 93 | 228 | 7.0 | 14.0 | 0.00 | 0.00 | 0.00 | 50 | 1015.1 |
| 20260906172535 | 92 | 226 | 5.0 | 14.0 | 0.00 | 0.00 | 0.00 | 52 | 1015.1 |
| 20260906172033 | 93 | 112 | 3.0 | 13.0 | 0.00 | 0.00 | 0.00 | 50 | 1015.2 |
| 20260906171604 | 93 | 99 | 6.0 | 13.0 | 0.00 | 0.00 | 0.00 | 51 | 1015.2 |
| 20260906171033 | 92 | 160 | 2.0 | 11.0 | 0.00 | 0.00 | 0.00 | 54 | 1015.3 |
| 20260906170535 | 92 | 236 | 3.0 | 12.0 | 0.00 | 0.00 | 0.00 | 54 | 1015.2 |
| 20260906170107 | 92 | 184 | 5.0 | 13.0 | 0.00 | 0.00 | 0.00 | 53 | 1015.4 |
| 20260906165534 | 92 | 251 | 6.0 | 13.0 | 0.00 | 0.00 | 0.00 | 53 | 1015.4 |
| 20260906165050 | 91 | 264 | 2.0 | 8.0 | 0.00 | 0.00 | 0.00 | 54 | 1015.4 |
| 20260906164601 | 91 | 174 | 4.0 | 10.0 | 0.00 | 0.00 | 0.00 | 56 | 1015.4 |
| 20260906164033 | 90 | 0 | 2.0 | 10.0 | 0.00 | 0.00 | 0.00 | 57 | 1015.4 |
| 20260906163532 | 89 | 230 | 5.0 | 10.0 | 0.00 | 0.00 | 0.00 | 57 | 1015.4 |
| 20260906163110 | 89 | 184 | 2.0 | 9.0 | 0.00 | 0.00 | 0.00 | 59 | 1015.4 |
| 20260906162537 | 89 | 245 | 3.0 | 10.0 | 0.00 | 0.00 | 0.00 | 58 | 1015.4 |
| 20260906162033 | 90 | 228 | 5.0 | 10.0 | 0.00 | 0.00 | 0.00 | 56 | 1015.4 |
| 20260906161554 | 89 | 92 | 5.0 | 10.0 | 0.00 | 0.00 | 0.00 | 60 | 1015.4 |
| 20260906161034 | 88 | 203 | 2.0 | 8.0 | 0.00 | 0.00 | 0.00 | 61 | 1015.4 |
| 20260906160533 | 87 | 232 | 4.0 | 9.0 | 0.00 | 0.00 | 0.00 | 61 | 1015.4 |
| 20260906155531 | 87 | 267 | 5.0 | 9.0 | 0.00 | 0.00 | 0.00 | 62 | 1015.4 |
| 20260906155036 | 88 | 130 | 4.0 | 9.0 | 0.00 | 0.00 | 0.00 | 61 | 1015.3 |
| 20260906154558 | 87 | 131 | 5.0 | 9.0 | 0.00 | 0.00 | 0.00 | 64 | 1015.2 |
| 20260906154033 | 86 | 293 | 2.0 | 9.0 | 0.00 | 0.00 | 0.00 | 64 | 1015.3 |
| 20260906153533 | 85 | 332 | 2.0 | 9.0 | 0.00 | 0.00 | 0.00 | 65 | 1015.3 |
| 20260906153057 | 86 | 170 | 3.0 | 9.0 | 0.00 | 0.00 | 0.00 | 65 | 1015.3 |
| 20260906152534 | 85 | 284 | 2.0 | 9.0 | 0.00 | 0.00 | 0.00 | 65 | 1015.4 |
| 20260906152034 | 85 | 192 | 4.0 | 10.0 | 0.00 | 0.00 | 0.00 | 65 | 1015.3 |
| 20260906151558 | 85 | 230 | 3.0 | 10.0 | 0.00 | 0.00 | 0.00 | 65 | 1015.4 |
| 20260906151033 | 84 | 216 | 3.0 | 7.0 | 0.00 | 0.00 | 0.00 | 66 | 1015.3 |
| 20260906150533 | 84 | 245 | 1.0 | 8.0 | 0.00 | 0.00 | 0.00 | 67 | 1015.2 |
| 20260906150104 | 84 | 187 | 4.0 | 8.0 | 0.00 | 0.00 | 0.00 | 68 | 1015.3 |
| 20260906145533 | 84 | 122 | 3.0 | 6.0 | 0.00 | 0.00 | 0.00 | 68 | 1015.2 |
| 20260906145033 | 84 | 122 | 1.0 | 5.0 | 0.00 | 0.00 | 0.00 | 69 | 1015.2 |
| 20260906144556 | 83 | 0 | 1.0 | 5.0 | 0.00 | 0.00 | 0.00 | 71 | 1015.2 |
| 20260906144033 | 83 | 258 | 2.0 | 8.0 | 0.00 | 0.00 | 0.00 | 71 | 1015.2 |
| 20260906143533 | 82 | 0 | 3.0 | 8.0 | 0.00 | 0.00 | 0.00 | 72 | 1015.2 |
| 20260906143058 | 82 | 268 | 1.0 | 7.0 | 0.00 | 0.00 | 0.00 | 74 | 1015.1 |
| 20260906142536 | 81 | 145 | 3.0 | 7.0 | 0.00 | 0.00 | 0.00 | 75 | 1015.2 |
| 20260906142036 | 80 | 235 | 3.0 | 8.0 | 0.00 | 0.00 | 0.00 | 75 | 1015.2 |
| 20260906141558 | 80 | 213 | 4.0 | 8.0 | 0.00 | 0.00 | 0.00 | 77 | 1015.0 |
| 20260906141034 | 79 | 245 | 5.0 | 8.0 | 0.00 | 0.00 | 0.00 | 76 | 1015.0 |
| 20260906140533 | 79 | 234 | 3.0 | 6.0 | 0.00 | 0.00 | 0.00 | 78 | 1015.0 |
| 20260906135533 | 78 | 182 | 1.0 | 6.0 | 0.00 | 0.00 | 0.00 | 85 | 1015.0 |
| 20260906135033 | 76 | 182 | 3.0 | 6.0 | 0.00 | 0.00 | 0.00 | 88 | 1014.9 |
| 20260906134556 | 76 | 205 | 4.0 | 7.0 | 0.00 | 0.00 | 0.00 | 89 | 1014.9 |
| 20260906134035 | 76 | 182 | 1.0 | 7.0 | 0.00 | 0.00 | 0.00 | 90 | 1014.8 |
| 20260906133535 | 75 | 210 | 3.0 | 7.0 | 0.00 | 0.00 | 0.00 | 90 | 1014.7 |
| 20260906133129 | 75 | 195 | 2.0 | 7.0 | 0.00 | 0.00 | 0.00 | 91 | 1014.7 |
| 20260906132536 | 75 | 176 | 3.0 | 7.0 | 0.00 | 0.00 | 0.00 | 91 | 1014.7 |
| 20260906132034 | 75 | 160 | 2.0 | 7.0 | 0.00 | 0.00 | 0.00 | 91 | 1014.6 |
| 20260906131554 | 74 | 197 | 2.0 | 5.0 | 0.00 | 0.00 | 0.00 | 91 | 1014.4 |
| 20260906131033 | 74 | 182 | 1.0 | 5.0 | 0.00 | 0.00 | 0.00 | 91 | 1014.4 |
| 20260906130533 | 74 | 174 | 0.0 | 2.0 | 0.00 | 0.00 | 0.00 | 91 | 1014.4 |
| 20260906130108 | 73 | 153 | 1.0 | 2.0 | 0.00 | 0.00 | 0.00 | 91 | 1014.3 |
| 20260906125533 | 73 | 153 | 1.0 | 2.0 | 0.00 | 0.00 | 0.00 | 91 | 1014.2 |
| 20260906125032 | 73 | 153 | 1.0 | 2.0 | 0.00 | 0.00 | 0.00 | 90 | 1014.1 |
| 20260906124553 | 73 | 0 | 0.0 | 2.0 | 0.00 | 0.00 | 0.00 | 90 | 1014.0 |
| 20260906124035 | 72 | 0 | 0.0 | 2.0 | 0.00 | 0.00 | 0.00 | 90 | 1014.0 |
| 20260906123532 | 72 | 0 | 0.0 | 3.0 | 0.00 | 0.00 | 0.00 | 90 | 1014.0 |
| 20260906123100 | 72 | 153 | 0.0 | 3.0 | 0.00 | 0.00 | 0.00 | 89 | 1013.9 |
| 20260906122534 | 72 | 173 | 0.0 | 3.0 | 0.00 | 0.00 | 0.00 | 89 | 1013.9 |
| 20260906122034 | 72 | 0 | 0.0 | 0.0 | 0.00 | 0.00 | 0.00 | 89 | 1013.8 |
| 20260906121557 | 72 | 0 | 0.0 | 0.0 | 0.00 | 0.00 | 0.00 | 88 | 1013.7 |
| 20260906121034 | 72 | 0 | 0.0 | 0.0 | 0.00 | 0.00 | 0.00 | 88 | 1013.6 |
| 20260906120534 | 71 | 0 | 0.0 | 0.0 | 0.00 | 0.00 | 0.00 | 88 | 1013.7 |
| 20260906115533 | 71 | 0 | 0.0 | 0.0 | 0.00 | 0.00 | 0.00 | 87 | 1013.6 |
| 20260906115034 | 71 | 0 | 0.0 | 0.0 | 0.00 | 0.00 | 0.00 | 87 | 1013.6 |
| 20260906114601 | 71 | 0 | 0.0 | 0.0 | 0.00 | 0.00 | 0.00 | 87 | 1013.4 |
| 20260906114033 | 71 | 0 | 0.0 | 0.0 | 0.00 | 0.00 | 0.00 | 86 | 1013.3 |
| 20260906113531 | 71 | 0 | 0.0 | 0.0 | 0.00 | 0.00 | 0.00 | 86 | 1013.3 |
| 20260906113101 | 72 | 0 | 0.0 | 0.0 | 0.00 | 0.00 | 0.00 | 86 | 1013.4 |
| 20260906112533 | 72 | 0 | 0.0 | 0.0 | 0.00 | 0.00 | 0.00 | 86 | 1013.3 |
| 20260906112033 | 72 | 0 | 0.0 | 0.0 | 0.00 | 0.00 | 0.00 | 86 | 1013.3 |
| 20260906111613 | 72 | 0 | 0.0 | 0.0 | 0.00 | 0.00 | 0.00 | 86 | 1013.2 |
| 20260906111032 | 72 | 0 | 0.0 | 0.0 | 0.00 | 0.00 | 0.00 | 86 | 1013.3 |
| 20260906110533 | 72 | 0 | 0.0 | 0.0 | 0.00 | 0.00 | 0.00 | 85 | 1013.3 |
| 20260906110058 | 72 | 0 | 0.0 | 0.0 | 0.00 | 0.00 | 0.00 | 85 | 1013.3 |
| 20260906105533 | 72 | 0 | 0.0 | 0.0 | 0.00 | 0.00 | 0.00 | 85 | 1013.3 |
| 20260906105034 | 72 | 0 | 0.0 | 0.0 | 0.00 | 0.00 | 0.00 | 84 | 1013.1 |
| 20260906104556 | 72 | 0 | 0.0 | 0.0 | 0.00 | 0.00 | 0.00 | 84 | 1013.1 |
| 20260906104033 | 72 | 0 | 0.0 | 0.0 | 0.00 | 0.00 | 0.00 | 84 | 1013.1 |
| 20260906103532 | 72 | 0 | 0.0 | 0.0 | 0.00 | 0.00 | 0.00 | 84 | 1013.1 |
| 20260906103059 | 72 | 0 | 0.0 | 0.0 | 0.00 | 0.00 | 0.00 | 84 | 1012.9 |
| 20260906102533 | 72 | 0 | 0.0 | 0.0 | 0.00 | 0.00 | 0.00 | 84 | 1013.0 |
| 20260906102035 | 72 | 0 | 0.0 | 0.0 | 0.00 | 0.00 | 0.00 | 84 | 1012.9 |
| 20260906101600 | 72 | 0 | 0.0 | 0.0 | 0.00 | 0.00 | 0.00 | 84 | 1012.9 |
| 20260906101034 | 72 | 0 | 0.0 | 1.0 | 0.00 | 0.00 | 0.00 | 83 | 1012.9 |
| 20260906100532 | 73 | 0 | 0.0 | 1.0 | 0.00 | 0.00 | 0.00 | 82 | 1012.7 |
| 20260906100057 | 73 | 0 | 0.0 | 2.0 | 0.00 | 0.00 | 0.00 | 83 | 1012.5 |
| 20260906095540 | 73 | 0 | 0.0 | 2.0 | 0.00 | 0.00 | 0.00 | 82 | 1012.4 |
| 20260906095033 | 73 | 0 | 0.0 | 2.0 | 0.00 | 0.00 | 0.00 | 82 | 1012.4 |
| 20260906094551 | 73 | 0 | 0.0 | 2.0 | 0.00 | 0.00 | 0.00 | 82 | 1012.3 |
| 20260906094034 | 73 | 54 | 1.0 | 2.0 | 0.00 | 0.00 | 0.00 | 81 | 1012.3 |
| 20260906093533 | 73 | 55 | 0.0 | 2.0 | 0.00 | 0.00 | 0.00 | 81 | 1012.4 |
| 20260906093104 | 73 | 0 | 0.0 | 2.0 | 0.00 | 0.00 | 0.00 | 80 | 1012.2 |
| 20260906092532 | 74 | 55 | 0.0 | 2.0 | 0.00 | 0.00 | 0.00 | 80 | 1012.3 |
| 20260906092034 | 74 | 0 | 0.0 | 1.0 | 0.00 | 0.00 | 0.00 | 79 | 1012.5 |
| 20260906091556 | 74 | 0 | 0.0 | 1.0 | 0.00 | 0.00 | 0.00 | 79 | 1012.4 |
| 20260906091033 | 74 | 0 | 0.0 | 3.0 | 0.00 | 0.00 | 0.00 | 79 | 1012.4 |
| 20260906090533 | 74 | 0 | 0.0 | 3.0 | 0.00 | 0.00 | 0.00 | 79 | 1012.3 |
| 20260906090057 | 74 | 0 | 1.0 | 3.0 | 0.00 | 0.00 | 0.00 | 78 | 1012.3 |
| 20260906085533 | 75 | 351 | 1.0 | 3.0 | 0.00 | 0.00 | 0.00 | 78 | 1012.4 |
| 20260906085032 | 75 | 6 | 1.0 | 3.0 | 0.00 | 0.00 | 0.00 | 77 | 1012.4 |
| 20260906084558 | 75 | 0 | 0.0 | 3.0 | 0.00 | 0.00 | 0.00 | 76 | 1012.4 |
| 20260906084034 | 75 | 0 | 0.0 | 3.0 | 0.00 | 0.00 | 0.00 | 76 | 1012.5 |
| 20260906083534 | 76 | 0 | 0.0 | 2.0 | 0.00 | 0.00 | 0.00 | 76 | 1012.5 |
| 20260906083052 | 76 | 0 | 0.0 | 3.0 | 0.00 | 0.00 | 0.00 | 75 | 1012.6 |
| 20260906082532 | 76 | 29 | 1.0 | 3.0 | 0.00 | 0.00 | 0.00 | 75 | 1012.6 |
| 20260906082036 | 76 | 29 | 1.0 | 3.0 | 0.00 | 0.00 | 0.00 | 74 | 1012.5 |
| 20260906081600 | 77 | 12 | 0.0 | 3.0 | 0.00 | 0.00 | 0.00 | 74 | 1012.7 |
| 20260906081033 | 77 | 0 | 0.0 | 0.0 | 0.00 | 0.00 | 0.00 | 74 | 1012.8 |
| 20260906080533 | 77 | 0 | 0.0 | 0.0 | 0.00 | 0.00 | 0.00 | 74 | 1012.9 |
| 20260906075534 | 78 | 0 | 0.0 | 0.0 | 0.00 | 0.00 | 0.00 | 73 | 1013.1 |
| 20260906075033 | 78 | 0 | 0.0 | 0.0 | 0.00 | 0.00 | 0.00 | 73 | 1013.0 |
| 20260906074551 | 78 | 0 | 0.0 | 0.0 | 0.00 | 0.00 | 0.00 | 72 | 1013.2 |
| 20260906074038 | 79 | 0 | 0.0 | 1.0 | 0.00 | 0.00 | 0.00 | 72 | 1013.4 |
| 20260906073533 | 79 | 0 | 0.0 | 1.0 | 0.00 | 0.00 | 0.00 | 72 | 1013.4 |
| 20260906073058 | 79 | 0 | 0.0 | 1.0 | 0.00 | 0.00 | 0.00 | 71 | 1013.5 |
| 20260906072534 | 79 | 0 | 0.0 | 0.0 | 0.00 | 0.00 | 0.00 | 71 | 1013.6 |
| 20260906072033 | 79 | 0 | 0.0 | 1.0 | 0.00 | 0.00 | 0.00 | 71 | 1013.6 |
| 20260906071600 | 80 | 0 | 0.0 | 1.0 | 0.00 | 0.00 | 0.00 | 71 | 1013.7 |
| 20260906071033 | 80 | 148 | 0.0 | 1.0 | 0.00 | 0.00 | 0.00 | 71 | 1013.7 |
| 20260906070534 | 80 | 0 | 0.0 | 4.0 | 0.00 | 0.00 | 0.00 | 71 | 1013.7 |
| 20260906070059 | 80 | 0 | 0.0 | 4.0 | 0.00 | 0.00 | 0.00 | 71 | 1013.8 |
| 20260906065534 | 80 | 0 | 0.0 | 7.0 | 0.00 | 0.00 | 0.00 | 71 | 1013.8 |
| 20260906065034 | 80 | 148 | 2.0 | 8.0 | 0.00 | 0.00 | 0.00 | 70 | 1013.9 |
| 20260906064552 | 81 | 151 | 4.0 | 8.0 | 0.00 | 0.00 | 0.00 | 70 | 1013.8 |
| 20260906064038 | 81 | 139 | 5.0 | 8.0 | 0.00 | 0.00 | 0.00 | 70 | 1013.8 |
| 20260906063533 | 81 | 142 | 4.0 | 8.0 | 0.00 | 0.00 | 0.00 | 70 | 1013.9 |
| 20260906063059 | 81 | 155 | 3.0 | 8.0 | 0.00 | 0.00 | 0.00 | 70 | 1014.0 |
| 20260906062533 | 81 | 187 | 3.0 | 8.0 | 0.00 | 0.00 | 0.00 | 70 | 1014.2 |
| 20260906062033 | 81 | 177 | 3.0 | 8.0 | 0.00 | 0.00 | 0.00 | 69 | 1014.1 |
| 20260906061600 | 81 | 187 | 3.0 | 8.0 | 0.00 | 0.00 | 0.00 | 69 | 1014.2 |
| 20260906061033 | 81 | 192 | 3.0 | 9.0 | 0.00 | 0.00 | 0.00 | 69 | 1014.2 |
| 20260906060533 | 81 | 158 | 5.0 | 9.0 | 0.00 | 0.00 | 0.00 | 69 | 1014.0 |
| 20260906060059 | 81 | 158 | 5.0 | 14.0 | 0.00 | 0.00 | 0.00 | 68 | 1013.9 |
| 20260906055533 | 81 | 137 | 6.0 | 14.0 | 0.00 | 0.00 | 0.00 | 68 | 1013.9 |
| 20260906055032 | 82 | 125 | 5.0 | 13.0 | 0.00 | 0.00 | 0.00 | 68 | 1013.8 |
| 20260906054606 | 82 | 151 | 6.0 | 12.0 | 0.00 | 0.00 | 0.00 | 67 | 1013.9 |
| 20260906054034 | 82 | 133 | 5.0 | 12.0 | 0.00 | 0.00 | 0.00 | 67 | 1013.9 |
| 20260906053534 | 82 | 139 | 7.0 | 11.0 | 0.00 | 0.00 | 0.00 | 66 | 1013.9 |
| 20260906053101 | 82 | 145 | 6.0 | 11.0 | 0.00 | 0.00 | 0.00 | 66 | 1013.9 |
| 20260906052534 | 82 | 142 | 5.0 | 11.0 | 0.00 | 0.00 | 0.00 | 65 | 1013.9 |
| 20260906052033 | 82 | 147 | 7.0 | 11.0 | 0.00 | 0.00 | 0.00 | 64 | 1013.8 |
| 20260906051611 | 82 | 128 | 5.0 | 11.0 | 0.00 | 0.00 | 0.00 | 64 | 1013.9 |
| 20260906051034 | 82 | 142 | 7.0 | 11.0 | 0.00 | 0.00 | 0.00 | 63 | 1013.9 |
| 20260906050533 | 82 | 134 | 6.0 | 10.0 | 0.00 | 0.00 | 0.00 | 63 | 1014.0 |
| 20260906050058 | 83 | 158 | 6.0 | 12.0 | 0.00 | 0.00 | 0.00 | 62 | 1014.0 |
| 20260906045532 | 83 | 155 | 5.0 | 12.0 | 0.00 | 0.00 | 0.00 | 62 | 1013.9 |
| 20260906045036 | 83 | 126 | 6.0 | 12.0 | 0.00 | 0.00 | 0.00 | 62 | 1014.0 |
| 20260906044553 | 83 | 128 | 6.0 | 14.0 | 0.00 | 0.00 | 0.00 | 62 | 1014.0 |
| 20260906044034 | 83 | 145 | 5.0 | 15.0 | 0.00 | 0.00 | 0.00 | 63 | 1014.0 |
| 20260906043533 | 84 | 160 | 7.0 | 15.0 | 0.00 | 0.00 | 0.00 | 62 | 1014.0 |
| 20260906043057 | 84 | 136 | 9.0 | 15.0 | 0.00 | 0.00 | 0.00 | 62 | 1014.0 |
| 20260906042533 | 84 | 187 | 7.0 | 15.0 | 0.00 | 0.00 | 0.00 | 62 | 1013.8 |
| 20260906042033 | 84 | 186 | 9.0 | 15.0 | 0.00 | 0.00 | 0.00 | 62 | 1013.8 |
| 20260906041558 | 84 | 153 | 7.0 | 13.0 | 0.00 | 0.00 | 0.00 | 62 | 1013.9 |
| 20260906041034 | 84 | 151 | 5.0 | 13.0 | 0.00 | 0.00 | 0.00 | 61 | 1013.9 |
| 20260906040533 | 84 | 161 | 7.0 | 16.0 | 0.00 | 0.00 | 0.00 | 61 | 1013.9 |
| 20260906040134 | 85 | 148 | 7.0 | 16.0 | 0.00 | 0.00 | 0.00 | 60 | 1013.9 |
| 20260906035537 | 85 | 153 | 8.0 | 15.0 | 0.00 | 0.00 | 0.00 | 61 | 1013.8 |
| 20260906035035 | 85 | 185 | 8.0 | 14.0 | 0.00 | 0.00 | 0.00 | 62 | 1013.7 |
| 20260906034615 | 85 | 145 | 9.0 | 14.0 | 0.00 | 0.00 | 0.00 | 62 | 1013.7 |
| 20260906034033 | 85 | 176 | 6.0 | 12.0 | 0.00 | 0.00 | 0.00 | 62 | 1013.7 |
| 20260906033532 | 85 | 181 | 6.0 | 13.0 | 0.00 | 0.00 | 0.00 | 62 | 1013.7 |
| 20260906033106 | 85 | 155 | 7.0 | 14.0 | 0.00 | 0.00 | 0.00 | 62 | 1013.6 |
| 20260906032537 | 85 | 133 | 7.0 | 14.0 | 0.00 | 0.00 | 0.00 | 62 | 1013.5 |
| 20260906032033 | 85 | 170 | 6.0 | 13.0 | 0.00 | 0.00 | 0.00 | 61 | 1013.3 |
| 20260906031556 | 85 | 156 | 6.0 | 13.0 | 0.00 | 0.00 | 0.00 | 60 | 1013.3 |
| 20260906031035 | 85 | 157 | 6.0 | 13.0 | 0.00 | 0.00 | 0.00 | 60 | 1013.1 |
| 20260906030533 | 84 | 160 | 5.0 | 10.0 | 0.00 | 0.00 | 0.00 | 59 | 1013.1 |
| 20260906030052 | 84 | 127 | 4.0 | 10.0 | 0.00 | 0.00 | 0.00 | 58 | 1013.1 |
| 20260906025534 | 84 | 158 | 6.0 | 10.0 | 0.00 | 0.00 | 0.00 | 58 | 1013.0 |
| 20260906025033 | 84 | 164 | 4.0 | 10.0 | 0.00 | 0.00 | 0.00 | 58 | 1012.8 |
| 20260906024613 | 84 | 166 | 5.0 | 9.0 | 0.00 | 0.00 | 0.00 | 58 | 1012.7 |
| 20260906024034 | 83 | 166 | 4.0 | 9.0 | 0.00 | 0.00 | 0.00 | 58 | 1012.4 |
| 20260906023533 | 83 | 154 | 4.0 | 9.0 | 0.00 | 0.00 | 0.00 | 58 | 1012.3 |
| 20260906023102 | 83 | 143 | 3.0 | 8.0 | 0.00 | 0.00 | 0.00 | 58 | 1012.2 |
| 20260906022534 | 83 | 144 | 3.0 | 9.0 | 0.00 | 0.00 | 0.00 | 58 | 1012.0 |
| 20260906022034 | 83 | 168 | 4.0 | 9.0 | 0.00 | 0.00 | 0.00 | 58 | 1011.9 |
| 20260906021555 | 83 | 128 | 3.0 | 6.0 | 0.00 | 0.00 | 0.00 | 58 | 1011.9 |
| 20260906021033 | 84 | 167 | 2.0 | 4.0 | 0.00 | 0.00 | 0.00 | 58 | 1011.8 |
| 20260906020533 | 84 | 141 | 1.0 | 2.0 | 0.00 | 0.00 | 0.00 | 57 | 1011.7 |
| 20260906020055 | 85 | 86 | 0.0 | 2.0 | 0.00 | 0.00 | 0.00 | 56 | 1011.6 |
| 20260906015533 | 85 | 86 | 0.0 | 1.0 | 0.00 | 0.00 | 0.00 | 56 | 1011.4 |
| 20260906015033 | 86 | 0 | 0.0 | 2.0 | 0.00 | 0.00 | 0.00 | 55 | 1011.3 |
| 20260906014558 | 86 | 86 | 0.0 | 2.0 | 0.00 | 0.00 | 0.00 | 54 | 1011.3 |
| 20260906014034 | 87 | 0 | 0.0 | 2.0 | 0.00 | 0.00 | 0.00 | 53 | 1011.3 |
| 20260906013533 | 87 | 0 | 0.0 | 1.0 | 0.00 | 0.00 | 0.00 | 53 | 1011.2 |
| 20260906013100 | 88 | 0 | 0.0 | 2.0 | 0.00 | 0.00 | 0.00 | 52 | 1011.2 |
| 20260906012532 | 88 | 86 | 0.0 | 2.0 | 0.00 | 0.00 | 0.00 | 52 | 1011.2 |
| 20260906012033 | 89 | 0 | 0.0 | 1.0 | 0.00 | 0.00 | 0.00 | 52 | 1011.1 |
| 20260906011557 | 89 | 0 | 0.0 | 1.0 | 0.00 | 0.00 | 0.00 | 51 | 1011.1 |
| 20260906011033 | 90 | 0 | 0.0 | 1.0 | 0.00 | 0.00 | 0.00 | 50 | 1011.2 |
| 20260906010535 | 90 | 0 | 0.0 | 1.0 | 0.00 | 0.00 | 0.00 | 49 | 1011.1 |
| 20260906010100 | 91 | 0 | 0.0 | 2.0 | 0.00 | 0.00 | 0.00 | 49 | 1011.2 |
| 20260906005532 | 91 | 0 | 0.0 | 4.0 | 0.00 | 0.00 | 0.00 | 49 | 1011.2 |
| 20260906005033 | 91 | 0 | 0.0 | 5.0 | 0.00 | 0.00 | 0.00 | 47 | 1011.2 |
| 20260906004553 | 91 | 86 | 1.0 | 8.0 | 0.00 | 0.00 | 0.00 | 47 | 1011.1 |
| 20260906004034 | 92 | 114 | 2.0 | 8.0 | 0.00 | 0.00 | 0.00 | 47 | 1011.1 |
| 20260906003535 | 92 | 94 | 2.0 | 9.0 | 0.00 | 0.00 | 0.00 | 47 | 1011.1 |
| 20260906003058 | 92 | 83 | 4.0 | 9.0 | 0.00 | 0.00 | 0.00 | 47 | 1011.1 |
| 20260906002534 | 92 | 121 | 3.0 | 8.0 | 0.00 | 0.00 | 0.00 | 47 | 1011.1 |
| 20260906002033 | 92 | 81 | 4.0 | 9.0 | 0.00 | 0.00 | 0.00 | 47 | 1011.0 |
| 20260906001608 | 92 | 125 | 3.0 | 10.0 | 0.00 | 0.00 | 0.00 | 47 | 1010.9 |
| 20260906001034 | 92 | 96 | 4.0 | 11.0 | 0.00 | 0.00 | 0.00 | 47 | 1011.0 |
| 20260906000532 | 93 | 100 | 5.0 | 11.0 | 0.00 | 0.00 | 0.00 | 46 | 1010.9 |
| 20260906000100 | 93 | 79 | 6.0 | 12.0 | 0.00 | 0.00 | 0.00 | 46 | 1011.0 |
| 20260905235533 | 93 | 95 | 4.0 | 14.0 | 0.00 | 0.00 | 0.00 | 46 | 1010.9 |
| 20260905235034 | 93 | 118 | 7.0 | 14.0 | 0.00 | 0.00 | 0.00 | 46 | 1010.9 |
| 20260905234550 | 93 | 115 | 8.0 | 14.0 | 0.00 | 0.00 | 0.00 | 45 | 1010.9 |
| 20260905234033 | 93 | 100 | 9.0 | 13.0 | 0.00 | 0.00 | 0.00 | 45 | 1011.0 |
| 20260905233532 | 93 | 95 | 6.0 | 11.0 | 0.00 | 0.00 | 0.00 | 46 | 1010.9 |
| 20260905233102 | 93 | 89 | 5.0 | 11.0 | 0.00 | 0.00 | 0.00 | 47 | 1011.0 |
| 20260905232532 | 93 | 136 | 7.0 | 17.0 | 0.00 | 0.00 | 0.00 | 46 | 1011.0 |
| 20260905232033 | 93 | 124 | 8.0 | 17.0 | 0.00 | 0.00 | 0.00 | 46 | 1011.0 |
| 20260905231559 | 94 | 94 | 8.0 | 16.0 | 0.00 | 0.00 | 0.00 | 46 | 1011.0 |
| 20260905231032 | 94 | 89 | 8.0 | 15.0 | 0.00 | 0.00 | 0.00 | 46 | 1011.0 |
| 20260905230533 | 94 | 77 | 9.0 | 15.0 | 0.00 | 0.00 | 0.00 | 45 | 1011.0 |
| 20260905230105 | 94 | 129 | 6.0 | 12.0 | 0.00 | 0.00 | 0.00 | 44 | 1010.9 |
| 20260905225533 | 95 | 65 | 3.0 | 12.0 | 0.00 | 0.00 | 0.00 | 45 | 1011.0 |
| 20260905225033 | 94 | 64 | 2.0 | 12.0 | 0.00 | 0.00 | 0.00 | 44 | 1011.1 |
| 20260905224616 | 94 | 106 | 5.0 | 12.0 | 0.00 | 0.00 | 0.00 | 44 | 1011.1 |
| 20260905224033 | 94 | 133 | 5.0 | 13.0 | 0.00 | 0.00 | 0.00 | 42 | 1011.1 |
| 20260905223534 | 95 | 89 | 4.0 | 13.0 | 0.00 | 0.00 | 0.00 | 41 | 1011.0 |
| 20260905223111 | 96 | 135 | 7.0 | 13.0 | 0.00 | 0.00 | 0.00 | 41 | 1010.9 |
| 20260905222533 | 97 | 139 | 7.0 | 13.0 | 0.00 | 0.00 | 0.00 | 39 | 1010.9 |
| 20260905222034 | 97 | 60 | 4.0 | 10.0 | 0.00 | 0.00 | 0.00 | 41 | 1011.0 |
| 20260905221604 | 97 | 147 | 3.0 | 11.0 | 0.00 | 0.00 | 0.00 | 40 | 1011.0 |
| 20260905221032 | 96 | 178 | 6.0 | 12.0 | 0.00 | 0.00 | 0.00 | 40 | 1011.0 |
| 20260905220534 | 95 | 120 | 7.0 | 20.0 | 0.00 | 0.00 | 0.00 | 40 | 1011.0 |
| 20260905220059 | 96 | 119 | 4.0 | 20.0 | 0.00 | 0.00 | 0.00 | 39 | 1010.9 |
| 20260905215533 | 99 | 173 | 6.0 | 20.0 | 0.00 | 0.00 | 0.00 | 37 | 1010.8 |
| 20260905215032 | 100 | 74 | 8.0 | 13.0 | 0.00 | 0.00 | 0.00 | 36 | 1011.0 |
| 20260905214552 | 100 | 110 | 5.0 | 13.0 | 0.00 | 0.00 | 0.00 | 37 | 1011.0 |
| 20260905214033 | 100 | 127 | 6.0 | 13.0 | 0.00 | 0.00 | 0.00 | 37 | 1011.0 |
| 20260905213533 | 101 | 158 | 6.0 | 18.0 | 0.00 | 0.00 | 0.00 | 36 | 1011.1 |
| 20260905213102 | 101 | 149 | 4.0 | 18.0 | 0.00 | 0.00 | 0.00 | 35 | 1011.2 |
| 20260905212536 | 101 | 142 | 6.0 | 15.0 | 0.00 | 0.00 | 0.00 | 36 | 1011.2 |
| 20260905212034 | 100 | 138 | 5.0 | 15.0 | 0.00 | 0.00 | 0.00 | 37 | 1011.2 |
| 20260905211555 | 100 | 155 | 5.0 | 17.0 | 0.00 | 0.00 | 0.00 | 36 | 1011.4 |
| 20260905211033 | 100 | 162 | 9.0 | 17.0 | 0.00 | 0.00 | 0.00 | 37 | 1011.4 |
| 20260905210533 | 100 | 119 | 5.0 | 16.0 | 0.00 | 0.00 | 0.00 | 37 | 1011.4 |
| 20260905210058 | 100 | 216 | 9.0 | 16.0 | 0.00 | 0.00 | 0.00 | 38 | 1011.5 |
| 20260905205533 | 100 | 113 | 4.0 | 12.0 | 0.00 | 0.00 | 0.00 | 38 | 1011.5 |
| 20260905205035 | 100 | 73 | 7.0 | 12.0 | 0.00 | 0.00 | 0.00 | 39 | 1011.7 |
| 20260905204601 | 100 | 115 | 4.0 | 12.0 | 0.00 | 0.00 | 0.00 | 37 | 1011.8 |
| 20260905204036 | 100 | 180 | 6.0 | 14.0 | 0.00 | 0.00 | 0.00 | 37 | 1011.8 |
| 20260905203534 | 100 | 116 | 6.0 | 14.0 | 0.00 | 0.00 | 0.00 | 36 | 1011.9 |
| 20260905203055 | 100 | 168 | 7.0 | 16.0 | 0.00 | 0.00 | 0.00 | 36 | 1012.1 |
| 20260905202532 | 100 | 172 | 7.0 | 16.0 | 0.00 | 0.00 | 0.00 | 37 | 1012.1 |
| 20260905202034 | 100 | 122 | 4.0 | 16.0 | 0.00 | 0.00 | 0.00 | 38 | 1012.1 |
| 20260905201558 | 100 | 33 | 4.0 | 17.0 | 0.00 | 0.00 | 0.00 | 38 | 1012.2 |
| 20260905201033 | 100 | 191 | 8.0 | 17.0 | 0.00 | 0.00 | 0.00 | 40 | 1012.3 |
| 20260905200533 | 100 | 118 | 1.0 | 13.0 | 0.00 | 0.00 | 0.00 | 41 | 1012.4 |
| 20260905200104 | 99 | 158 | 6.0 | 13.0 | 0.00 | 0.00 | 0.00 | 41 | 1012.5 |
| 20260905195535 | 98 | 95 | 7.0 | 13.0 | 0.00 | 0.00 | 0.00 | 41 | 1012.6 |
| 20260905195033 | 98 | 180 | 5.0 | 13.0 | 0.00 | 0.00 | 0.00 | 40 | 1012.7 |
| 20260905194556 | 98 | 170 | 6.0 | 13.0 | 0.00 | 0.00 | 0.00 | 41 | 1012.8 |
| 20260905194035 | 97 | 130 | 6.0 | 13.0 | 0.00 | 0.00 | 0.00 | 45 | 1012.9 |
| 20260905193534 | 97 | 359 | 3.0 | 11.0 | 0.00 | 0.00 | 0.00 | 44 | 1012.9 |
| 20260905193057 | 97 | 155 | 5.0 | 11.0 | 0.00 | 0.00 | 0.00 | 45 | 1013.1 |
| 20260905192533 | 96 | 91 | 5.0 | 11.0 | 0.00 | 0.00 | 0.00 | 47 | 1013.2 |
| 20260905192034 | 95 | 168 | 6.0 | 14.0 | 0.00 | 0.00 | 0.00 | 50 | 1013.2 |
| 20260905191605 | 94 | 122 | 5.0 | 14.0 | 0.00 | 0.00 | 0.00 | 53 | 1013.4 |
| 20260905191033 | 94 | 72 | 8.0 | 14.0 | 0.00 | 0.00 | 0.00 | 51 | 1013.5 |
| 20260905190533 | 94 | 80 | 4.0 | 13.0 | 0.00 | 0.00 | 0.00 | 53 | 1013.6 |
| 20260905190059 | 94 | 105 | 5.0 | 13.0 | 0.00 | 0.00 | 0.00 | 54 | 1013.7 |